Time;durP1;ratioP1;P1;durP2;ratioP2;P2;SDS_P1;SDS_P2;PMS_P1;PMS_P2;Temp;Humidity;BMP_temperature;BMP_pressure;BME280_temperature;BME280_humidity;BME280_pressure;Samples;Min_cycle;Max_cycle;Signal;HPM_P1;HPM_P2
2022/11/18 00:00:13;;;;;;;3.08;1.40;;;;;;;6.92;88.21;99429.19;5016115;28;20491;-79
2022/11/18 00:02:38;;;;;;;4.10;1.40;;;;;;;6.88;88.19;99430.16;5032082;28;20040;-79
2022/11/18 00:05:03;;;;;;;3.45;1.33;;;;;;;6.86;87.83;99429.38;5033913;28;20029;-78
2022/11/18 00:07:28;;;;;;;4.15;1.50;;;;;;;6.83;87.75;99423.41;5032021;28;20032;-79
2022/11/18 00:09:54;;;;;;;4.72;1.67;;;;;;;6.81;87.94;99432.13;5027762;28;20021;-78
2022/11/18 00:15:03;;;;;;;4.43;1.55;;;;;;;6.75;88.00;99437.47;5033445;28;20404;-78
2022/11/18 00:17:31;;;;;;;3.78;1.60;;;;;;;6.75;88.29;99443.50;5027957;28;20026;-79
2022/11/18 00:19:56;;;;;;;3.95;1.50;;;;;;;6.73;87.81;99445.28;5031412;28;20022;-78
2022/11/18 00:22:21;;;;;;;3.95;1.50;;;;;;;6.72;88.02;99442.78;5028980;28;20095;-78
2022/11/18 00:24:47;;;;;;;2.97;1.20;;;;;;;6.70;88.49;99450.56;5032924;28;20052;-78
2022/11/18 00:27:12;;;;;;;5.05;1.50;;;;;;;6.67;88.26;99443.75;5027894;28;20021;-79
2022/11/18 00:29:37;;;;;;;3.00;1.40;;;;;;;6.67;88.65;99445.47;5029335;28;20385;-78
2022/11/18 00:32:03;;;;;;;4.03;1.55;;;;;;;6.66;88.71;99449.81;5032127;28;20400;-78
2022/11/18 00:34:28;;;;;;;3.22;1.40;;;;;;;6.66;89.08;99454.16;5031493;28;20400;-78
2022/11/18 00:36:53;;;;;;;4.55;1.15;;;;;;;6.65;89.19;99458.47;5032209;28;20029;-78
2022/11/18 00:39:19;;;;;;;4.95;1.60;;;;;;;6.66;88.97;99456.75;5030319;28;20045;-78
2022/11/18 00:44:29;;;;;;;3.58;1.33;;;;;;;6.65;89.25;99463.63;5032596;28;20041;-79
2022/11/18 00:46:55;;;;;;;3.10;1.35;;;;;;;6.67;89.80;99466.16;5031844;28;20037;-79
2022/11/18 00:49:21;;;;;;;4.00;1.58;;;;;;;6.69;89.97;99472.13;5029586;28;20021;-79
2022/11/18 00:51:46;;;;;;;3.42;1.75;;;;;;;6.72;90.04;99468.63;5032154;28;20025;-79
2022/11/18 00:54:11;;;;;;;3.58;1.50;;;;;;;6.76;90.17;99468.47;5024958;28;20097;-79
2022/11/18 00:56:36;;;;;;;2.25;1.27;;;;;;;6.80;90.04;99474.38;5029764;28;20025;-79
2022/11/18 00:59:02;;;;;;;3.13;1.52;;;;;;;6.83;89.86;99475.09;5021458;28;20033;-79
2022/11/18 01:01:27;;;;;;;4.35;1.48;;;;;;;6.87;89.66;99486.22;5027624;28;20078;-78
2022/11/18 01:03:53;;;;;;;3.50;1.40;;;;;;;6.90;89.82;99487.84;5032940;28;20032;-79
2022/11/18 01:06:18;;;;;;;4.30;1.50;;;;;;;6.93;90.12;99487.75;5029779;28;20060;-79
2022/11/18 01:08:43;;;;;;;4.72;1.15;;;;;;;6.97;89.80;99489.34;5030673;28;20476;-78
2022/11/18 01:13:53;;;;;;;2.53;0.98;;;;;;;7.04;90.48;99505.50;5025323;28;20409;-79
2022/11/18 01:16:25;;;;;;;3.55;1.30;;;;;;;7.07;90.84;99497.66;5026706;28;20021;-79
2022/11/18 01:18:51;;;;;;;3.45;1.33;;;;;;;7.11;90.50;99513.00;5022090;28;20474;-79
2022/11/18 01:21:16;;;;;;;2.30;1.17;;;;;;;7.15;90.57;99505.97;5030420;28;20063;-79
2022/11/18 01:23:42;;;;;;;1.75;1.05;;;;;;;7.18;90.74;99510.19;5027711;28;20029;-79
2022/11/18 01:26:11;;;;;;;2.70;1.40;;;;;;;7.21;90.69;99513.53;5021180;28;20381;-79
2022/11/18 01:28:37;;;;;;;3.85;1.20;;;;;;;7.25;90.78;99516.88;5022329;28;20021;-79
2022/11/18 01:31:14;;;;;;;3.13;1.10;;;;;;;7.27;91.06;99517.66;5019300;28;20084;-78
2022/11/18 01:33:40;;;;;;;1.88;1.15;;;;;;;7.30;90.71;99522.75;5016640;28;20425;-79
2022/11/18 01:36:18;;;;;;;1.80;1.10;;;;;;;7.33;90.61;99522.66;5031865;28;20040;-79
2022/11/18 01:38:43;;;;;;;3.97;1.35;;;;;;;7.36;90.78;99521.69;5022416;28;20113;-79
2022/11/18 01:41:09;;;;;;;2.95;1.30;;;;;;;7.37;90.68;99526.78;5028966;28;20064;-79
2022/11/18 01:43:57;;;;;;;1.98;1.08;;;;;;;7.39;90.74;99522.41;5025962;28;20097;-79
2022/11/18 01:46:25;;;;;;;3.05;1.17;;;;;;;7.42;90.65;99532.66;5025715;28;20369;-79
2022/11/18 01:48:55;;;;;;;4.57;1.27;;;;;;;7.43;90.69;99539.53;5025054;28;20105;-79
2022/11/18 01:51:27;;;;;;;3.53;1.10;;;;;;;7.44;90.75;99538.66;5025680;28;20037;-79
2022/11/18 01:53:58;;;;;;;;;;;;;;;7.50;90.05;99536.75;5027942;28;20030;-79
2022/11/18 01:56:29;;;;;;;2.40;1.00;;;;;;;7.50;90.74;99539.34;5015707;28;20000;-79
2022/11/18 01:58:57;;;;;;;1.98;0.90;;;;;;;7.51;90.84;99539.28;5022273;28;20064;-78
2022/11/18 02:01:23;;;;;;;2.75;1.20;;;;;;;7.53;90.72;99547.84;5024481;28;20045;-78
2022/11/18 02:03:49;;;;;;;4.45;1.30;;;;;;;7.55;90.96;99546.03;5027000;28;20108;-79
2022/11/18 02:06:14;;;;;;;1.98;1.00;;;;;;;7.57;90.90;99545.97;5028637;28;20032;-78
2022/11/18 02:08:41;;;;;;;3.78;1.42;;;;;;;7.57;91.07;99546.84;5027142;28;20057;-79
2022/11/18 02:11:49;;;;;;;2.20;1.00;;;;;;;7.60;91.23;99551.06;5027611;28;20025;-79
2022/11/18 02:13:58;;;;;;;4.57;1.30;;;;;;;7.64;91.06;99551.78;5020172;28;20045;-79
2022/11/18 02:16:36;;;;;;;3.00;1.25;;;;;;;7.65;90.96;99554.34;5027583;28;20033;-79
2022/11/18 02:19:11;;;;;;;1.98;1.02;;;;;;;7.68;91.00;99555.97;5028275;28;20075;-78
2022/11/18 02:21:51;;;;;;;3.05;1.20;;;;;;;7.69;90.90;99555.91;5018084;28;20051;-79
2022/11/18 02:24:39;;;;;;;3.38;1.20;;;;;;;7.71;91.02;99553.28;5031717;28;20480;-79
2022/11/18 02:27:32;;;;;;;3.75;1.15;;;;;;;7.73;90.81;99562.66;5025821;28;20038;-79
2022/11/18 02:30:09;;;;;;;2.05;0.95;;;;;;;7.72;91.07;99560.97;5031576;28;20144;-78
2022/11/18 02:32:44;;;;;;;1.33;0.95;;;;;;;7.74;91.00;99566.94;5025212;28;20041;-79
2022/11/18 02:35:18;;;;;;;2.92;1.10;;;;;;;7.76;91.07;99566.91;5027403;28;20496;-79
2022/11/18 02:37:54;;;;;;;1.65;0.90;;;;;;;7.76;91.01;99572.09;5030573;28;20033;-79
2022/11/18 02:40:24;;;;;;;2.80;1.15;;;;;;;7.79;90.95;99581.50;5028150;28;20029;-78
2022/11/18 02:42:55;;;;;;;3.40;0.98;;;;;;;7.80;91.04;99575.41;5027538;28;20481;-79
2022/11/18 02:45:21;;;;;;;2.75;0.90;;;;;;;7.82;90.80;99579.63;5024559;28;20399;-79
2022/11/18 02:47:49;;;;;;;2.50;1.10;;;;;;;7.83;90.89;99588.25;5024063;28;20477;-79
2022/11/18 02:50:19;;;;;;;1.58;0.80;;;;;;;7.84;90.90;99577.00;5022568;28;20088;-79
2022/11/18 02:52:48;;;;;;;1.80;0.95;;;;;;;7.85;90.73;99582.13;5022950;28;20126;-78
2022/11/18 02:55:17;;;;;;;4.53;1.55;;;;;;;7.86;90.79;99585.53;5031955;28;20063;-79
2022/11/18 02:57:43;;;;;;;4.53;2.08;;;;;;;7.86;90.69;99588.13;5030287;28;20056;-79
2022/11/18 03:00:09;;;;;;;4.88;2.47;;;;;;;7.88;90.71;99591.50;5030653;28;20036;-79
2022/11/18 03:02:44;;;;;;;5.28;2.60;;;;;;;7.86;90.87;99589.00;5028796;28;20030;-79
2022/11/18 03:05:19;;;;;;;5.68;2.88;;;;;;;7.87;90.90;99585.50;5026496;28;20180;-79
2022/11/18 03:07:50;;;;;;;5.25;2.70;;;;;;;7.87;90.78;99590.69;5025977;28;20034;-79
2022/11/18 03:10:20;;;;;;;6.10;3.08;;;;;;;7.89;90.78;99600.97;5016711;28;20083;-79
2022/11/18 03:13:11;;;;;;;5.38;2.70;;;;;;;7.90;90.85;99593.16;5018023;28;20515;-79
2022/11/18 03:16:00;;;;;;;5.20;2.75;;;;;;;7.90;90.65;99600.06;5021536;28;20369;-79
2022/11/18 03:18:53;;;;;;;6.25;2.60;;;;;;;7.91;90.94;99596.59;5023209;28;20541;-79
2022/11/18 03:21:36;;;;;;;4.75;2.30;;;;;;;7.93;90.71;99596.56;5033503;28;20029;-79
2022/11/18 03:24:17;;;;;;;4.13;1.98;;;;;;;7.93;90.75;99609.50;5029527;28;20029;-79
2022/11/18 03:26:49;;;;;;;4.03;1.70;;;;;;;7.93;90.63;99612.94;5023547;28;20021;-79
2022/11/18 03:29:25;;;;;;;2.50;1.52;;;;;;;7.93;90.80;99620.69;5028949;28;20029;-79
2022/11/18 03:31:57;;;;;;;3.97;1.33;;;;;;;7.94;90.82;99630.16;5027897;28;20032;-79
2022/11/18 03:34:50;;;;;;;2.63;1.25;;;;;;;7.94;90.62;99621.56;5025706;28;20029;-79
2022/11/18 03:37:18;;;;;;;2.42;1.13;;;;;;;7.91;90.79;99617.31;5026285;28;20033;-79
2022/11/18 03:39:50;;;;;;;3.75;1.30;;;;;;;7.93;90.92;99631.06;5034719;28;20056;-79
2022/11/18 03:42:19;;;;;;;2.33;1.05;;;;;;;7.91;90.91;99635.44;5023279;28;20117;-79
2022/11/18 03:44:53;;;;;;;4.47;1.50;;;;;;;7.90;91.44;99632.00;5029532;28;20022;-79
2022/11/18 03:47:30;;;;;;;2.50;1.10;;;;;;;7.90;91.27;99642.38;5026520;28;20026;-79
2022/11/18 03:50:00;;;;;;;3.63;1.38;;;;;;;7.90;91.12;99644.09;5029425;28;20405;-79
2022/11/18 03:52:30;;;;;;;2.88;1.23;;;;;;;7.89;91.23;99645.00;5029482;28;20022;-79
2022/11/18 03:54:58;;;;;;;3.58;1.23;;;;;;;7.91;91.47;99653.56;5022440;28;20022;-79
2022/11/18 03:57:30;;;;;;;2.30;1.20;;;;;;;7.89;91.69;99652.75;5024311;28;20037;-79
2022/11/18 04:00:04;;;;;;;4.80;1.40;;;;;;;7.88;91.62;99657.13;5022614;28;20049;-79
2022/11/18 04:02:29;;;;;;;1.70;1.13;;;;;;;7.89;91.69;99661.41;5020530;28;20053;-79
2022/11/18 04:04:58;;;;;;;3.80;1.35;;;;;;;7.90;91.64;99663.09;5030922;28;20440;-79
2022/11/18 04:07:32;;;;;;;3.15;1.15;;;;;;;7.89;91.75;99666.56;5021208;28;20037;-79
2022/11/18 04:10:05;;;;;;;2.05;1.05;;;;;;;7.90;91.70;99670.00;5026973;28;20080;-79
2022/11/18 04:12:37;;;;;;;2.30;1.20;;;;;;;7.89;91.76;99674.34;5028327;28;20049;-79
2022/11/18 04:15:02;;;;;;;2.78;1.40;;;;;;;7.88;91.66;99670.06;5022336;28;20034;-79
2022/11/18 04:17:28;;;;;;;3.20;1.30;;;;;;;7.89;91.77;99676.06;5007532;28;20145;-79
2022/11/18 04:19:53;;;;;;;2.05;1.25;;;;;;;7.88;91.80;99676.97;5023813;28;20057;-79
2022/11/18 04:22:20;;;;;;;3.22;1.30;;;;;;;7.86;91.82;99681.34;5017593;28;20057;-79
2022/11/18 04:24:45;;;;;;;1.52;1.05;;;;;;;7.86;91.95;99678.75;5025706;28;20033;-79
2022/11/18 04:27:11;;;;;;;3.15;1.30;;;;;;;7.84;92.04;99684.00;5022123;28;20034;-79
2022/11/18 04:29:37;;;;;;;2.83;1.20;;;;;;;7.82;91.87;99693.56;5025260;28;20484;-79
2022/11/18 04:32:03;;;;;;;1.55;1.10;;;;;;;7.81;91.86;99693.63;5018115;28;20026;-78
2022/11/18 04:34:29;;;;;;;3.03;1.42;;;;;;;7.79;91.85;99700.59;5032886;28;20025;-79
2022/11/18 04:36:54;;;;;;;1.70;1.13;;;;;;;7.77;92.06;99710.16;5015684;28;20033;-79
2022/11/18 04:39:20;;;;;;;3.72;1.55;;;;;;;7.73;92.19;99705.06;5027294;28;20034;-79
2022/11/18 04:41:54;;;;;;;4.93;1.25;;;;;;;7.72;92.12;99700.78;5029925;28;20468;-79
2022/11/18 04:44:31;;;;;;;3.80;1.17;;;;;;;7.72;92.00;99710.31;5020908;28;20025;-79
2022/11/18 04:46:58;;;;;;;2.45;1.25;;;;;;;7.71;92.24;99708.59;5020858;28;20037;-79
2022/11/18 04:49:24;;;;;;;2.92;1.40;;;;;;;7.68;92.27;99712.16;5028088;28;20021;-78
2022/11/18 04:51:51;;;;;;;2.78;1.30;;;;;;;7.67;92.55;99715.63;5015555;28;20032;-79
2022/11/18 04:54:17;;;;;;;2.22;1.15;;;;;;;7.67;92.42;99717.34;5020190;28;20146;-79
2022/11/18 04:56:43;;;;;;;4.00;1.52;;;;;;;7.67;92.63;99722.53;5031142;28;20565;-79
2022/11/18 04:59:08;;;;;;;3.80;1.30;;;;;;;7.66;92.57;99726.88;5030206;28;20151;-79
2022/11/18 05:01:34;;;;;;;2.38;1.40;;;;;;;7.65;92.50;99735.53;5034573;28;20125;-79
2022/11/18 05:04:01;;;;;;;2.65;1.20;;;;;;;7.63;92.64;99731.28;5032080;28;20037;-79
2022/11/18 05:06:26;;;;;;;4.15;1.40;;;;;;;7.60;92.74;99738.25;5031344;28;20498;-79
2022/11/18 05:08:51;;;;;;;4.20;1.55;;;;;;;7.57;92.66;99737.50;5034080;28;20101;-79
2022/11/18 05:14:00;;;;;;;3.85;1.45;;;;;;;7.54;93.24;99742.78;5018815;28;20104;-79
2022/11/18 05:16:26;;;;;;;3.47;1.30;;;;;;;7.53;93.00;99747.13;5024220;28;20411;-79
2022/11/18 05:18:51;;;;;;;3.05;1.40;;;;;;;7.52;92.80;99755.78;5024814;28;20068;-79
2022/11/18 05:21:17;;;;;;;3.38;1.42;;;;;;;7.52;92.83;99757.50;5025606;28;20112;-79
2022/11/18 05:23:43;;;;;;;2.65;1.30;;;;;;;7.49;93.07;99755.03;5022707;28;20171;-79
2022/11/18 05:26:10;;;;;;;4.00;1.17;;;;;;;7.46;93.04;99755.94;5025682;28;20532;-79
2022/11/18 05:28:36;;;;;;;2.65;1.25;;;;;;;7.43;92.77;99756.91;5027151;28;20122;-78
2022/11/18 05:31:13;;;;;;;2.30;1.45;;;;;;;7.39;92.66;99760.47;5026424;28;20468;-79
2022/11/18 05:33:39;;;;;;;2.67;1.38;;;;;;;7.37;92.77;99761.41;5020079;28;20120;-79
2022/11/18 05:36:10;;;;;;;4.30;1.50;;;;;;;7.32;92.53;99758.97;5024253;28;20017;-79
2022/11/18 05:38:35;;;;;;;2.78;1.30;;;;;;;7.29;92.59;99775.41;5024197;28;20037;-79
2022/11/18 05:41:01;;;;;;;4.00;1.35;;;;;;;7.25;92.40;99775.56;5027610;28;20044;-79
2022/11/18 05:43:27;;;;;;;3.75;1.38;;;;;;;7.22;92.44;99773.06;5019410;28;20531;-79
2022/11/18 05:45:52;;;;;;;6.95;1.88;;;;;;;7.18;92.77;99771.44;5026818;28;20021;-79
2022/11/18 05:48:19;;;;;;;2.67;1.40;;;;;;;7.14;92.63;99774.13;5032172;28;20025;-79
2022/11/18 05:50:50;;;;;;;5.53;1.48;;;;;;;7.12;92.27;99780.22;5026546;28;20129;-79
2022/11/18 05:53:17;;;;;;;3.65;1.50;;;;;;;7.09;92.44;99781.19;5028178;28;20030;-79
2022/11/18 05:56:20;;;;;;;5.53;1.83;;;;;;;7.06;92.33;99789.00;5025535;28;20021;-79
2022/11/18 05:58:46;;;;;;;3.28;1.50;;;;;;;7.02;92.16;99786.56;5029139;28;20441;-79
2022/11/18 06:01:14;;;;;;;3.05;1.40;;;;;;;6.99;92.46;99792.69;5021940;28;20067;-79
2022/11/18 06:03:40;;;;;;;2.75;1.50;;;;;;;6.96;92.31;99790.16;5026509;28;20017;-79
2022/11/18 06:06:09;;;;;;;2.80;1.33;;;;;;;6.93;92.36;99798.00;5023428;28;20026;-79
2022/11/18 06:08:44;;;;;;;3.42;1.33;;;;;;;6.91;92.66;99804.97;5023115;28;20021;-79
2022/11/18 06:11:13;;;;;;;4.35;1.50;;;;;;;6.87;92.26;99803.34;5022560;28;20026;-79
2022/11/18 06:13:49;;;;;;;3.40;1.33;;;;;;;6.86;92.55;99809.41;5022795;28;20523;-79
2022/11/18 06:16:19;;;;;;;3.60;1.58;;;;;;;6.82;92.45;99817.25;5025991;28;20032;-78
2022/11/18 06:18:44;;;;;;;3.00;1.45;;;;;;;6.81;92.59;99825.91;5021692;28;20022;-78
2022/11/18 06:21:10;;;;;;;3.55;1.30;;;;;;;6.80;92.60;99825.94;5017823;28;20036;-78
2022/11/18 06:23:38;;;;;;;2.17;1.42;;;;;;;6.77;92.53;99836.34;5022475;28;20032;-78
2022/11/18 06:26:03;;;;;;;3.03;1.40;;;;;;;6.75;92.70;99831.22;5003857;28;20499;-78
2022/11/18 06:28:29;;;;;;;3.53;1.58;;;;;;;6.73;92.59;99834.75;5021848;28;20014;-79
2022/11/18 06:30:54;;;;;;;3.58;1.63;;;;;;;6.71;92.67;99834.78;5028416;28;20034;-78
2022/11/18 06:33:19;;;;;;;2.80;1.70;;;;;;;6.70;92.85;99838.25;5030501;28;20415;-78
2022/11/18 06:35:45;;;;;;;2.95;1.58;;;;;;;6.68;93.00;99843.47;5030239;28;20044;-79
2022/11/18 06:38:10;;;;;;;3.90;1.63;;;;;;;6.67;92.96;99851.25;5023032;28;20033;-79
2022/11/18 06:40:36;;;;;;;4.13;1.60;;;;;;;6.66;92.73;99839.22;5031016;28;20060;-78
2022/11/18 06:48:40;;;;;;;2.38;1.45;;;;;;;6.60;93.03;99858.31;5020759;28;20511;-78
2022/11/18 06:51:06;;;;;;;4.82;1.70;;;;;;;6.58;92.89;99860.06;5027475;28;20049;-78
2022/11/18 06:53:35;;;;;;;3.78;1.58;;;;;;;6.56;93.03;99871.34;5021526;28;20029;-78
2022/11/18 06:56:05;;;;;;;6.65;1.90;;;;;;;6.56;93.08;99868.75;5021054;28;20461;-78
2022/11/18 06:58:30;;;;;;;5.22;1.90;;;;;;;6.53;93.17;99867.94;5026648;28;20030;-78
2022/11/18 07:00:55;;;;;;;3.00;1.63;;;;;;;6.53;93.08;99886.03;5017725;28;20128;-78
2022/11/18 07:03:21;;;;;;;2.92;1.63;;;;;;;6.51;92.91;99884.38;5006479;28;20037;-78
2022/11/18 07:05:46;;;;;;;3.00;1.60;;;;;;;6.48;93.22;99885.31;5002814;28;20444;-78
2022/11/18 07:08:11;;;;;;;2.92;1.73;;;;;;;6.46;93.20;99884.50;5017372;28;20035;-78
2022/11/18 07:10:36;;;;;;;4.03;1.45;;;;;;;6.46;93.39;99891.38;5019349;28;20077;-78
2022/11/18 07:13:02;;;;;;;3.42;1.60;;;;;;;6.45;93.03;99889.69;5024817;28;20054;-78
2022/11/18 07:15:27;;;;;;;3.05;1.60;;;;;;;6.45;93.36;99898.31;5019832;28;21895;-78
2022/11/18 07:17:52;;;;;;;2.50;1.58;;;;;;;6.47;93.07;99893.09;5005109;28;20030;-78
2022/11/18 07:20:17;;;;;;;2.63;1.55;;;;;;;6.47;93.30;99901.72;5024834;28;20482;-79
2022/11/18 07:22:43;;;;;;;4.70;1.70;;;;;;;6.49;93.33;99901.66;5019770;28;20022;-78
2022/11/18 07:25:08;;;;;;;6.30;2.00;;;;;;;6.50;93.18;99908.53;5015601;28;20527;-78
2022/11/18 07:27:33;;;;;;;3.03;1.48;;;;;;;6.51;93.11;99905.88;5027488;28;20029;-78
2022/11/18 07:29:59;;;;;;;4.75;2.08;;;;;;;6.52;93.34;99917.09;5030907;28;20037;-78
2022/11/18 07:32:24;;;;;;;2.85;1.73;;;;;;;6.51;93.17;99916.22;5021866;28;20033;-78
2022/11/18 07:34:49;;;;;;;3.72;1.83;;;;;;;6.52;93.45;99923.09;5019977;28;20056;-78
2022/11/18 07:37:14;;;;;;;5.25;1.95;;;;;;;6.52;93.21;99923.09;5030068;28;20103;-78
2022/11/18 07:39:40;;;;;;;3.75;1.67;;;;;;;6.52;93.57;99928.25;5011173;28;20030;-78
2022/11/18 07:42:05;;;;;;;3.90;2.00;;;;;;;6.52;93.56;99928.25;5026361;28;20053;-78
2022/11/18 07:44:30;;;;;;;3.97;1.80;;;;;;;6.53;93.36;99932.53;5025038;28;20391;-79
2022/11/18 07:46:55;;;;;;;3.67;1.70;;;;;;;6.54;93.50;99936.00;5018379;28;20029;-78
2022/11/18 07:49:21;;;;;;;3.50;2.00;;;;;;;6.53;93.42;99945.47;5022195;28;20461;-78
2022/11/18 07:51:46;;;;;;;3.15;1.88;;;;;;;6.57;93.34;99940.22;5025665;28;20029;-78
2022/11/18 07:54:15;;;;;;;4.07;1.83;;;;;;;6.57;93.52;99945.41;5023847;28;20079;-78
2022/11/18 07:56:40;;;;;;;3.40;1.80;;;;;;;6.59;93.12;99954.81;5031370;28;20092;-78
2022/11/18 07:59:06;;;;;;;3.47;1.75;;;;;;;6.59;93.36;99961.72;5013599;28;20030;-78
2022/11/18 08:01:31;;;;;;;4.60;1.90;;;;;;;6.61;93.20;99957.38;5030227;28;20064;-78
2022/11/18 08:04:03;;;;;;;5.85;1.77;;;;;;;6.59;93.45;99962.56;5031394;28;20029;-78
2022/11/18 08:06:31;;;;;;;2.75;1.67;;;;;;;6.60;93.09;99966.00;5016963;28;20556;-78
2022/11/18 08:08:57;;;;;;;4.93;1.98;;;;;;;6.59;93.32;99970.31;5033271;28;20030;-78
2022/11/18 08:11:22;;;;;;;3.35;1.98;;;;;;;6.59;93.25;99974.66;5035322;28;20044;-78
2022/11/18 08:13:47;;;;;;;4.68;1.80;;;;;;;6.58;93.07;99978.94;5030944;28;20065;-78
2022/11/18 08:16:18;;;;;;;5.18;1.95;;;;;;;6.61;93.12;99986.63;5019839;28;20037;-78
2022/11/18 08:18:44;;;;;;;5.13;2.20;;;;;;;6.60;93.52;99978.94;5016878;28;20045;-78
2022/11/18 08:21:10;;;;;;;3.58;1.90;;;;;;;6.61;93.25;99978.03;5033977;28;20033;-78
2022/11/18 08:23:35;;;;;;;3.95;2.35;;;;;;;6.63;93.37;99982.28;5031281;28;20080;-78
2022/11/18 08:26:06;;;;;;;4.18;2.25;;;;;;;6.68;93.83;99984.75;5011234;28;20108;-78
2022/11/18 08:28:32;;;;;;;4.57;2.30;;;;;;;6.71;93.52;99989.03;5029795;28;20030;-78
2022/11/18 08:30:57;;;;;;;4.45;2.30;;;;;;;6.74;93.60;99987.22;5029950;28;20045;-78
2022/11/18 08:33:22;;;;;;;4.38;2.10;;;;;;;6.77;93.95;99987.13;5031383;28;20029;-78
2022/11/18 08:35:47;;;;;;;5.18;1.90;;;;;;;6.80;93.74;99994.81;5020024;28;20029;-78
2022/11/18 08:38:13;;;;;;;5.55;2.30;;;;;;;6.82;93.29;100002.53;5029428;28;20109;-78
2022/11/18 08:40:43;;;;;;;3.33;2.20;;;;;;;6.82;93.32;100003.41;5025177;28;20043;-79
2022/11/18 08:43:10;;;;;;;9.55;2.53;;;;;;;6.83;93.36;100010.25;5028730;28;20121;-78
2022/11/18 08:45:37;;;;;;;3.03;2.20;;;;;;;6.82;93.25;100011.16;5031430;28;20033;-78
2022/11/18 08:48:02;;;;;;;4.55;2.50;;;;;;;6.83;93.29;100005.06;5028273;28;20032;-79
2022/11/18 08:50:28;;;;;;;4.82;2.33;;;;;;;6.84;92.99;100004.19;5034001;28;20025;-77
2022/11/18 08:52:53;;;;;;;4.72;2.45;;;;;;;6.85;93.04;100012.81;5019954;28;20084;-78
2022/11/18 08:55:18;;;;;;;4.35;2.30;;;;;;;6.86;92.87;100008.47;5017766;28;20077;-78
2022/11/18 08:57:44;;;;;;;4.15;2.13;;;;;;;6.86;92.81;100008.47;5023019;28;20456;-78
2022/11/18 09:00:10;;;;;;;4.03;2.40;;;;;;;6.86;92.72;100014.50;5032543;28;20057;-79
2022/11/18 09:02:35;;;;;;;4.30;2.20;;;;;;;6.87;93.18;100016.22;5026556;28;20115;-79
2022/11/18 09:05:00;;;;;;;4.00;2.35;;;;;;;6.91;93.17;100012.69;5030565;28;20033;-78
2022/11/18 09:07:25;;;;;;;5.07;2.20;;;;;;;6.94;93.14;100022.09;5021679;28;20029;-78
2022/11/18 09:09:51;;;;;;;4.70;2.15;;;;;;;6.96;92.51;100026.31;5032169;28;20087;-78
2022/11/18 09:12:16;;;;;;;5.75;2.30;;;;;;;6.99;93.02;100022.84;5028084;28;20190;-78
2022/11/18 09:14:45;;;;;;;5.55;1.98;;;;;;;7.02;92.85;100019.31;5015704;28;20037;-78
2022/11/18 09:17:11;;;;;;;3.95;2.20;;;;;;;7.08;92.80;100032.94;5029940;28;20034;-78
2022/11/18 09:19:36;;;;;;;4.13;2.03;;;;;;;7.14;93.11;100024.16;5025693;28;20033;-78
2022/11/18 09:22:03;;;;;;;3.60;1.83;;;;;;;7.23;93.13;100030.84;5019356;28;20029;-78
2022/11/18 09:24:28;;;;;;;3.58;2.10;;;;;;;7.32;93.42;100028.06;5018452;28;20026;-79
2022/11/18 09:26:53;;;;;;;4.50;2.22;;;;;;;7.40;92.89;100030.44;5024722;28;20033;-79
2022/11/18 09:29:24;;;;;;;3.92;2.20;;;;;;;7.43;92.31;100031.19;5028354;28;20024;-78
2022/11/18 09:31:49;;;;;;;4.00;2.10;;;;;;;7.50;92.63;100033.66;5027116;28;20040;-78
2022/11/18 09:34:14;;;;;;;7.25;2.58;;;;;;;7.54;92.08;100037.81;5026353;28;20029;-78
2022/11/18 09:36:39;;;;;;;4.20;2.20;;;;;;;7.58;91.82;100042.91;5028388;28;20039;-78
2022/11/18 09:39:04;;;;;;;4.65;2.30;;;;;;;7.64;91.93;100049.66;5021489;28;20033;-78
2022/11/18 09:41:49;;;;;;;5.63;2.17;;;;;;;7.69;91.38;100057.28;5020660;28;20044;-78
2022/11/18 09:44:40;;;;;;;4.28;2.05;;;;;;;7.74;91.61;100056.28;5028096;28;20021;-78
2022/11/18 09:47:08;;;;;;;4.20;2.20;;;;;;;7.77;91.52;100055.34;5025033;28;20087;-78
2022/11/18 09:49:39;;;;;;;5.07;2.42;;;;;;;7.77;91.47;100057.94;5027990;28;20033;-78
2022/11/18 09:52:16;;;;;;;5.35;2.50;;;;;;;7.81;91.48;100061.31;5020432;28;20044;-78
2022/11/18 09:54:42;;;;;;;5.00;1.95;;;;;;;7.83;91.56;100067.28;5020323;28;20021;-79
2022/11/18 09:57:15;;;;;;;4.85;2.33;;;;;;;7.90;91.72;100072.25;5018152;28;20033;-78
2022/11/18 09:59:41;;;;;;;5.43;2.33;;;;;;;7.97;91.73;100080.72;5024707;28;20404;-79
2022/11/18 10:02:12;;;;;;;4.38;2.20;;;;;;;8.02;91.80;100086.63;5020081;28;20489;-78
2022/11/18 10:04:37;;;;;;;3.72;2.00;;;;;;;8.09;91.96;100081.25;5027174;28;20033;-78
2022/11/18 10:07:14;;;;;;;4.13;2.22;;;;;;;8.14;91.06;100088.00;5025489;28;20033;-78
2022/11/18 10:09:40;;;;;;;3.97;2.40;;;;;;;8.18;90.52;100086.19;5027665;28;20017;-78
2022/11/18 10:12:20;;;;;;;5.47;2.33;;;;;;;8.20;90.68;100084.38;5029763;28;20025;-78
2022/11/18 10:15:10;;;;;;;5.70;2.40;;;;;;;8.26;89.93;100084.22;5022293;28;20489;-78
2022/11/18 10:18:17;;;;;;;4.40;2.15;;;;;;;8.31;89.65;100097.91;5026899;28;20017;-78
2022/11/18 10:20:50;;;;;;;5.78;2.20;;;;;;;8.38;90.16;100098.59;5026516;28;20052;-78
2022/11/18 10:23:22;;;;;;;5.50;2.20;;;;;;;8.43;88.90;100096.72;5027253;28;20095;-78
2022/11/18 10:25:48;;;;;;;4.88;2.30;;;;;;;8.48;88.58;100104.38;5009485;28;20025;-78
2022/11/18 10:28:15;;;;;;;8.63;2.78;;;;;;;8.49;87.87;100109.50;5022342;28;20033;-78
2022/11/18 10:30:40;;;;;;;7.15;2.45;;;;;;;8.52;87.83;100108.59;5021571;28;20022;-78
2022/11/18 10:33:24;;;;;;;6.18;2.50;;;;;;;8.60;88.44;100114.38;5027701;28;20087;-78
2022/11/18 10:36:06;;;;;;;5.90;2.40;;;;;;;8.68;88.02;100115.91;5024537;28;20108;-78
2022/11/18 10:38:31;;;;;;;;;;;;;;;8.77;88.79;100113.03;5023316;28;20037;-78
2022/11/18 10:41:00;;;;;;;4.38;2.30;;;;;;;8.82;88.13;100118.94;5026498;28;19951;-77
2022/11/18 10:43:47;;;;;;;5.90;2.30;;;;;;;8.90;87.94;100119.53;5026114;28;20033;-77
2022/11/18 10:46:23;;;;;;;5.53;2.20;;;;;;;8.94;87.12;100115.97;5007478;28;20025;-78
2022/11/18 10:49:08;;;;;;;4.68;2.28;;;;;;;9.00;87.13;100122.72;5027216;28;20028;-77
2022/11/18 10:51:34;;;;;;;6.10;2.33;;;;;;;9.03;86.31;100122.63;5025484;28;20025;-78
2022/11/18 10:54:15;;;;;;;6.90;2.60;;;;;;;9.06;86.73;100116.47;5028084;28;20025;-78
2022/11/18 10:56:53;;;;;;;7.40;2.10;;;;;;;9.10;86.42;100131.06;5025793;28;20055;-78
2022/11/18 10:59:24;;;;;;;6.90;2.50;;;;;;;9.11;86.00;100117.19;5022635;28;20041;-78
2022/11/18 11:02:15;;;;;;;4.20;2.13;;;;;;;9.18;86.58;100118.72;5023584;28;20095;-77
2022/11/18 11:04:40;;;;;;;5.32;2.22;;;;;;;9.22;85.67;100128.06;5021471;28;20033;-77
2022/11/18 11:07:14;;;;;;;4.40;2.17;;;;;;;9.25;85.46;100130.56;5025091;28;20029;-77
2022/11/18 11:09:40;;;;;;;5.28;2.30;;;;;;;9.27;84.98;100128.78;5021560;28;20029;-77
2022/11/18 11:12:23;;;;;;;4.70;2.17;;;;;;;9.27;85.24;100130.53;5022128;28;20033;-78
2022/11/18 11:14:52;;;;;;;6.68;2.10;;;;;;;9.26;84.50;100137.47;5023478;28;20112;-77
2022/11/18 11:17:26;;;;;;;6.93;2.15;;;;;;;9.27;84.40;100140.94;5023446;28;20043;-77
2022/11/18 11:20:18;;;;;;;6.13;2.25;;;;;;;9.26;84.58;100142.66;5023540;28;20052;-77
2022/11/18 11:22:43;;;;;;;;;;;;;;;9.29;85.93;100143.47;5013636;28;20416;-77
2022/11/18 11:25:48;;;;;;;3.05;1.60;;;;;;;9.25;84.59;100142.72;5021197;28;19924;-77
2022/11/18 11:28:42;;;;;;;4.05;1.80;;;;;;;9.22;84.61;100137.63;4995546;28;20041;-77
2022/11/18 11:31:20;;;;;;;4.35;1.85;;;;;;;9.21;84.85;100141.13;5002749;28;20079;-77
2022/11/18 11:34:00;;;;;;;5.75;2.10;;;;;;;9.18;84.04;100136.88;5021944;28;20037;-78
2022/11/18 11:37:00;;;;;;;4.43;1.90;;;;;;;9.18;84.62;100142.06;5022895;28;20060;-78
2022/11/18 11:39:32;;;;;;;5.38;2.10;;;;;;;9.19;84.71;100154.16;5025365;28;20037;-78
2022/11/18 11:42:28;;;;;;;6.88;2.30;;;;;;;9.21;85.57;100148.91;5025298;28;20033;-77
2022/11/18 11:45:07;;;;;;;6.18;2.13;;;;;;;9.26;84.73;100155.63;5025651;28;20548;-78
2022/11/18 11:48:04;;;;;;;5.82;2.08;;;;;;;9.31;84.69;100159.84;5021750;28;20499;-77
2022/11/18 11:50:52;;;;;;;3.63;1.90;;;;;;;9.35;84.51;100159.69;5025989;28;21359;-78
2022/11/18 11:53:31;;;;;;;6.75;2.13;;;;;;;9.40;84.07;100164.72;5008737;28;20366;-78
2022/11/18 11:56:14;;;;;;;4.10;1.80;;;;;;;9.44;84.15;100163.75;5025723;28;20068;-78
2022/11/18 11:58:55;;;;;;;4.53;2.20;;;;;;;9.47;84.46;100161.06;5026706;28;20033;-78
2022/11/18 12:01:53;;;;;;;4.40;2.20;;;;;;;9.52;84.90;100155.69;5028827;28;20052;-78
2022/11/18 12:04:44;;;;;;;5.60;2.17;;;;;;;9.51;84.87;100162.66;5027034;28;20048;-78
2022/11/18 12:07:22;;;;;;;3.83;2.10;;;;;;;9.52;84.28;100166.94;5027901;28;20383;-78
2022/11/18 12:10:21;;;;;;;5.40;2.15;;;;;;;9.52;84.78;100166.94;5030004;28;20082;-78